Time;durP1;ratioP1;P1;durP2;ratioP2;P2;SDS_P1;SDS_P2;PMS_P1;PMS_P2;Temp;Humidity;BMP_temperature;BMP_pressure;BME280_temperature;BME280_humidity;BME280_pressure;Samples;Min_cycle;Max_cycle;Signal;HPM_P1;HPM_P2
2022/04/03 00:01:40;;;;;;;3.55;1.58;;;-0.80;99.90;;;;;;5007237;28;20054;-62
2022/04/03 00:04:07;;;;;;;4.13;1.10;;;-0.80;99.90;;;;;;5009270;28;20049;-62
2022/04/03 00:06:34;;;;;;;2.38;1.40;;;-0.80;99.90;;;;;;5004479;28;20668;-68
2022/04/03 00:09:02;;;;;;;2.25;1.30;;;-0.90;99.90;;;;;;5018177;28;20122;-64
2022/04/03 00:11:29;;;;;;;4.25;1.15;;;-1.00;99.90;;;;;;5006621;28;20646;-70
2022/04/03 00:13:56;;;;;;;2.90;1.15;;;-1.00;99.90;;;;;;5007103;28;20126;-64
2022/04/03 00:16:23;;;;;;;5.07;1.80;;;-1.00;99.90;;;;;;5005000;28;20133;-63
2022/04/03 00:18:51;;;;;;;1.60;1.35;;;-1.00;99.90;;;;;;5007271;28;20054;-66
2022/04/03 00:21:19;;;;;;;7.35;2.38;;;-1.00;99.90;;;;;;5004051;28;20437;-68
2022/04/03 00:23:47;;;;;;;1.75;1.23;;;-1.00;99.90;;;;;;5001741;28;20137;-64
2022/04/03 00:26:14;;;;;;;5.57;1.38;;;-0.90;99.90;;;;;;5003020;28;20068;-66
2022/04/03 00:28:42;;;;;;;2.53;1.52;;;-0.90;99.90;;;;;;5006860;28;20077;-68
2022/04/03 00:31:10;;;;;;;3.22;1.13;;;-0.80;99.90;;;;;;5003649;28;20054;-64
2022/04/03 00:33:38;;;;;;;2.78;1.73;;;-0.70;99.90;;;;;;5000816;28;20089;-64
2022/04/03 00:36:06;;;;;;;3.13;1.30;;;-0.50;99.90;;;;;;5004735;28;20447;-69
2022/04/03 00:38:33;;;;;;;3.05;1.13;;;-0.30;99.90;;;;;;5016200;28;20502;-66
2022/04/03 00:41:02;;;;;;;2.03;0.98;;;-0.10;99.90;;;;;;5000353;28;20095;-65
2022/04/03 00:43:30;;;;;;;2.65;1.02;;;0.00;99.90;;;;;;5002551;28;20436;-66
2022/04/03 00:46:00;;;;;;;1.95;0.80;;;0.20;99.90;;;;;;5004809;28;20050;-63
2022/04/03 00:48:27;;;;;;;1.25;1.10;;;0.30;99.90;;;;;;5007017;28;20050;-65
2022/04/03 00:50:54;;;;;;;2.72;1.05;;;0.30;99.90;;;;;;5004862;28;20176;-64
2022/04/03 00:53:21;;;;;;;1.60;0.80;;;0.30;99.90;;;;;;5004764;28;20061;-63
2022/04/03 00:55:48;;;;;;;2.92;1.27;;;0.30;99.90;;;;;;5006470;28;20149;-66
2022/04/03 00:58:15;;;;;;;2.28;1.20;;;0.30;99.90;;;;;;5004303;28;20060;-68
2022/04/03 01:00:43;;;;;;;4.03;0.95;;;0.30;99.90;;;;;;5006219;28;20073;-63
2022/04/03 01:03:10;;;;;;;2.60;1.13;;;0.40;99.90;;;;;;5002063;28;20081;-67
2022/04/03 01:05:37;;;;;;;3.55;1.15;;;0.50;99.90;;;;;;5004130;28;20041;-64
2022/04/03 01:08:07;;;;;;;1.20;0.70;;;0.50;99.90;;;;;;5002678;28;20459;-63
2022/04/03 01:10:34;;;;;;;5.40;0.80;;;0.50;99.90;;;;;;5003248;28;20050;-66
2022/04/03 01:13:01;;;;;;;1.60;1.00;;;0.50;99.90;;;;;;5016940;28;20696;-64
2022/04/03 01:15:27;;;;;;;3.95;1.35;;;0.50;99.90;;;;;;4999846;28;20112;-66
2022/04/03 01:17:54;;;;;;;3.67;0.98;;;0.50;99.90;;;;;;5011107;28;20091;-67
2022/04/03 01:20:21;;;;;;;2.58;0.77;;;0.50;99.90;;;;;;5004307;28;20816;-66
2022/04/03 01:22:48;;;;;;;4.07;1.20;;;0.50;99.90;;;;;;5005785;28;20052;-65
2022/04/03 01:25:15;;;;;;;3.47;1.10;;;0.50;99.90;;;;;;5007855;28;20058;-66
2022/04/03 01:27:42;;;;;;;2.05;1.58;;;0.50;99.90;;;;;;4996558;28;20156;-68
2022/04/03 01:30:10;;;;;;;1.85;1.08;;;0.50;99.90;;;;;;4992539;28;20137;-63
2022/04/03 01:32:40;;;;;;;3.50;1.00;;;0.50;99.90;;;;;;4993896;28;20042;-69
2022/04/03 01:35:08;;;;;;;4.88;0.90;;;0.40;99.90;;;;;;5003118;28;20045;-64
2022/04/03 01:37:35;;;;;;;3.50;1.65;;;0.40;99.90;;;;;;4997100;28;20160;-62
2022/04/03 01:40:04;;;;;;;3.60;0.95;;;0.40;99.90;;;;;;5001426;28;20050;-68
2022/04/03 01:42:31;;;;;;;2.28;0.80;;;0.50;99.90;;;;;;5002978;28;20050;-63
2022/04/03 01:44:58;;;;;;;3.70;1.15;;;0.50;99.90;;;;;;5006359;28;20046;-64
2022/04/03 01:47:26;;;;;;;1.73;1.42;;;0.40;99.90;;;;;;5003194;28;20151;-64
2022/04/03 01:49:53;;;;;;;2.33;1.85;;;0.40;99.90;;;;;;5006418;28;20471;-64
2022/04/03 01:52:20;;;;;;;4.65;1.40;;;0.30;99.90;;;;;;5003939;28;20061;-65
2022/04/03 01:54:47;;;;;;;3.45;0.70;;;0.20;99.90;;;;;;5000068;28;20117;-69
2022/04/03 01:57:14;;;;;;;1.20;0.88;;;0.10;99.90;;;;;;5001205;28;20072;-64
2022/04/03 01:59:41;;;;;;;1.20;1.00;;;0.10;99.90;;;;;;5004953;28;20056;-64
2022/04/03 02:02:08;;;;;;;2.63;1.30;;;0.10;99.90;;;;;;5004567;28;20053;-65
2022/04/03 02:04:35;;;;;;;1.10;0.63;;;0.10;99.90;;;;;;5007796;28;20061;-62
2022/04/03 02:07:03;;;;;;;1.20;1.05;;;0.00;99.90;;;;;;5011976;28;20084;-62
2022/04/03 02:09:30;;;;;;;2.72;1.35;;;-0.10;99.90;;;;;;5016679;28;20062;-70
2022/04/03 02:11:58;;;;;;;2.80;1.23;;;-0.10;99.90;;;;;;5005524;28;20096;-63
2022/04/03 02:14:25;;;;;;;2.10;1.13;;;-0.10;99.90;;;;;;5003956;28;20053;-64
2022/04/03 02:16:54;;;;;;;2.08;1.30;;;0.00;99.90;;;;;;4995408;28;20127;-66
2022/04/03 02:19:21;;;;;;;3.22;1.15;;;0.00;99.90;;;;;;5004876;28;20511;-68
2022/04/03 02:21:49;;;;;;;5.03;0.98;;;0.20;99.90;;;;;;5004098;28;20500;-65
2022/04/03 02:24:15;;;;;;;3.67;1.23;;;0.30;99.90;;;;;;5008334;28;20225;-66
2022/04/03 02:26:42;;;;;;;3.05;1.30;;;0.30;99.90;;;;;;5004117;28;20057;-66
2022/04/03 02:29:09;;;;;;;0.98;0.77;;;0.30;99.90;;;;;;5002754;28;20054;-67
2022/04/03 02:31:36;;;;;;;1.40;1.20;;;0.30;99.90;;;;;;4999790;28;20142;-66
2022/04/03 02:34:05;;;;;;;1.98;0.88;;;0.40;99.90;;;;;;5002956;28;20120;-67
2022/04/03 02:36:32;;;;;;;1.40;0.77;;;0.50;99.90;;;;;;4997126;28;20197;-63
2022/04/03 02:38:59;;;;;;;2.50;0.65;;;0.80;99.90;;;;;;4999944;28;20077;-63
2022/04/03 02:41:26;;;;;;;2.28;0.88;;;0.90;99.90;;;;;;4996523;28;20049;-62
2022/04/03 02:43:53;;;;;;;4.32;1.50;;;1.00;99.90;;;;;;4999541;28;20621;-63
2022/04/03 02:46:19;;;;;;;3.50;0.93;;;1.00;99.90;;;;;;5002076;28;20600;-70
2022/04/03 02:48:47;;;;;;;4.13;0.80;;;1.00;99.90;;;;;;4999297;28;20862;-63
2022/04/03 02:51:14;;;;;;;3.30;0.60;;;1.10;99.90;;;;;;5004302;28;20128;-66
2022/04/03 02:53:41;;;;;;;4.22;0.70;;;1.20;99.90;;;;;;4996615;28;20058;-69
2022/04/03 02:56:08;;;;;;;4.20;0.90;;;1.20;99.90;;;;;;5002755;28;20132;-62
2022/04/03 02:58:35;;;;;;;6.75;0.60;;;1.20;99.90;;;;;;4994635;28;20084;-63
2022/04/03 03:01:02;;;;;;;3.35;0.80;;;1.30;99.90;;;;;;5001456;28;20077;-68
2022/04/03 03:03:29;;;;;;;1.25;0.60;;;1.30;99.90;;;;;;5004286;28;20081;-66
2022/04/03 03:05:56;;;;;;;4.68;0.88;;;1.20;99.90;;;;;;5002855;28;20054;-63
2022/04/03 03:08:23;;;;;;;2.80;0.85;;;1.30;99.90;;;;;;4995901;28;20088;-65
2022/04/03 03:10:51;;;;;;;1.77;0.60;;;1.30;99.90;;;;;;5000627;28;20042;-65
2022/04/03 03:13:18;;;;;;;1.05;0.60;;;1.30;99.90;;;;;;5016104;28;20400;-63
2022/04/03 03:15:45;;;;;;;1.27;1.00;;;1.30;99.90;;;;;;5008044;28;20049;-65
2022/04/03 03:18:12;;;;;;;5.07;1.08;;;1.30;99.90;;;;;;5003870;28;20520;-63
2022/04/03 03:20:40;;;;;;;2.60;0.90;;;1.30;99.90;;;;;;5001777;28;20128;-63
2022/04/03 03:23:07;;;;;;;1.92;0.80;;;1.30;99.90;;;;;;5003690;28;20151;-69
2022/04/03 03:25:34;;;;;;;1.42;0.65;;;1.30;99.90;;;;;;5002904;28;20224;-64
2022/04/03 03:28:01;;;;;;;1.73;0.70;;;1.30;99.90;;;;;;5003530;28;20108;-66
2022/04/03 03:30:28;;;;;;;1.65;0.60;;;1.30;99.90;;;;;;4989050;28;20058;-65
2022/04/03 03:32:55;;;;;;;3.45;0.98;;;1.30;99.90;;;;;;5003580;28;20050;-65
2022/04/03 03:35:22;;;;;;;1.73;1.55;;;1.30;99.90;;;;;;5003389;28;20133;-68
2022/04/03 03:37:49;;;;;;;1.77;0.57;;;1.30;99.90;;;;;;4997270;28;20052;-69
2022/04/03 03:40:16;;;;;;;0.88;0.80;;;1.30;99.90;;;;;;5002916;28;20088;-64
2022/04/03 03:42:43;;;;;;;1.10;0.70;;;1.30;99.90;;;;;;5001228;28;20195;-65
2022/04/03 03:45:12;;;;;;;3.58;1.73;;;1.30;99.90;;;;;;5002632;28;20279;-67
2022/04/03 03:47:42;;;;;;;3.60;1.25;;;1.20;99.90;;;;;;5000162;28;20153;-65
2022/04/03 03:50:10;;;;;;;3.13;0.77;;;1.20;99.90;;;;;;5000406;28;20129;-63
2022/04/03 03:52:37;;;;;;;2.83;0.90;;;1.20;99.90;;;;;;5001562;28;20431;-63
2022/04/03 03:55:04;;;;;;;5.20;0.93;;;1.20;99.90;;;;;;5003858;28;20522;-63
2022/04/03 03:57:31;;;;;;;4.93;0.90;;;1.20;99.90;;;;;;5002833;28;20062;-68
2022/04/03 03:59:58;;;;;;;2.60;0.85;;;1.20;99.90;;;;;;5005352;28;20077;-64
2022/04/03 04:02:25;;;;;;;1.67;0.80;;;1.20;99.90;;;;;;4994585;28;20089;-63
2022/04/03 04:04:52;;;;;;;2.53;0.77;;;1.30;99.90;;;;;;5003633;28;20145;-64
2022/04/03 04:07:19;;;;;;;1.92;1.30;;;1.20;99.90;;;;;;5003218;28;20042;-64
2022/04/03 04:09:46;;;;;;;9.27;1.67;;;1.20;99.90;;;;;;4998681;28;20061;-63
2022/04/03 04:12:13;;;;;;;1.95;0.90;;;1.10;99.90;;;;;;4999936;28;20064;-65
2022/04/03 04:14:39;;;;;;;0.90;0.47;;;1.10;99.90;;;;;;5005692;28;20053;-65
2022/04/03 04:17:08;;;;;;;1.48;1.15;;;1.10;99.90;;;;;;5003074;28;20060;-64
2022/04/03 04:19:36;;;;;;;1.80;1.00;;;1.10;99.90;;;;;;5000961;28;20144;-65
2022/04/03 04:22:03;;;;;;;1.75;0.80;;;1.00;99.90;;;;;;5013400;28;20557;-67
2022/04/03 04:24:30;;;;;;;2.95;1.08;;;1.00;99.90;;;;;;5001586;28;20387;-68
2022/04/03 04:26:59;;;;;;;3.10;1.05;;;1.00;99.90;;;;;;5002842;28;20041;-64
2022/04/03 04:29:27;;;;;;;1.83;1.17;;;1.00;99.90;;;;;;5007141;28;20141;-65
2022/04/03 04:31:53;;;;;;;3.45;0.98;;;1.00;99.90;;;;;;5005320;28;20100;-66
2022/04/03 04:34:21;;;;;;;4.72;1.17;;;1.00;99.90;;;;;;4995714;28;20049;-62
2022/04/03 04:36:47;;;;;;;6.88;1.63;;;1.10;99.90;;;;;;5006116;28;20558;-64
2022/04/03 04:39:14;;;;;;;2.45;0.80;;;1.10;99.90;;;;;;5005542;28;20117;-64
2022/04/03 04:41:41;;;;;;;1.17;0.82;;;1.00;99.90;;;;;;5001413;28;20073;-64
2022/04/03 04:44:08;;;;;;;1.15;0.73;;;1.00;99.90;;;;;;5007114;28;20053;-63
2022/04/03 04:46:35;;;;;;;5.20;1.30;;;1.00;99.90;;;;;;5003629;28;20119;-65
2022/04/03 04:49:02;;;;;;;1.58;0.57;;;1.00;99.90;;;;;;5006356;28;20052;-63
2022/04/03 04:51:29;;;;;;;3.03;1.08;;;1.00;99.90;;;;;;5001442;28;20054;-63
2022/04/03 04:53:56;;;;;;;2.90;1.55;;;0.90;99.90;;;;;;4993206;28;20126;-62
2022/04/03 04:56:23;;;;;;;1.55;1.02;;;1.00;99.90;;;;;;4994575;28;20493;-65
2022/04/03 04:58:50;;;;;;;0.88;0.77;;;1.10;99.90;;;;;;4988388;28;20137;-70
2022/04/03 05:01:17;;;;;;;7.53;1.58;;;1.10;99.90;;;;;;4997706;28;20054;-68
2022/04/03 05:03:44;;;;;;;2.33;1.45;;;1.10;99.90;;;;;;4988076;28;20054;-64
2022/04/03 05:06:15;;;;;;;1.83;0.98;;;1.20;99.90;;;;;;4991741;28;20042;-66
2022/04/03 05:08:43;;;;;;;3.03;1.38;;;1.20;99.90;;;;;;4987848;28;20046;-64
2022/04/03 05:11:13;;;;;;;3.03;0.80;;;1.20;99.90;;;;;;4992518;28;20078;-63
2022/04/03 05:13:41;;;;;;;3.87;0.67;;;1.30;99.90;;;;;;4993099;28;20120;-69
2022/04/03 05:16:08;;;;;;;3.13;1.27;;;1.30;99.90;;;;;;4996561;28;20284;-63
2022/04/03 05:18:38;;;;;;;2.10;0.68;;;1.40;99.90;;;;;;4997479;28;20137;-68
2022/04/03 05:21:07;;;;;;;1.23;0.60;;;1.40;99.90;;;;;;4997850;28;20056;-67
2022/04/03 05:23:34;;;;;;;3.63;2.22;;;1.50;99.90;;;;;;5008209;28;20073;-71
2022/04/03 05:26:01;;;;;;;4.13;3.30;;;1.50;99.90;;;;;;5008757;28;20038;-67
2022/04/03 05:28:28;;;;;;;3.45;2.80;;;1.50;99.90;;;;;;5006845;28;20070;-62
2022/04/03 05:30:55;;;;;;;3.67;1.75;;;1.60;99.90;;;;;;5007043;28;20559;-71
2022/04/03 05:33:22;;;;;;;1.63;0.82;;;1.60;99.90;;;;;;5001611;28;20041;-70
2022/04/03 05:35:51;;;;;;;1.23;0.80;;;1.70;99.90;;;;;;5007319;28;20071;-65
2022/04/03 05:38:18;;;;;;;5.78;1.02;;;1.70;99.90;;;;;;5003769;28;20519;-67
2022/04/03 05:40:45;;;;;;;0.60;0.60;;;1.70;99.90;;;;;;5008723;28;20448;-63
2022/04/03 05:43:12;;;;;;;4.18;0.90;;;1.70;99.90;;;;;;5005079;28;20065;-73
2022/04/03 05:45:39;;;;;;;4.25;1.48;;;1.80;99.90;;;;;;5005032;28;20080;-62
2022/04/03 05:48:07;;;;;;;11.32;1.58;;;1.80;99.90;;;;;;5008354;28;20050;-67
2022/04/03 05:50:35;;;;;;;3.20;1.13;;;1.80;99.90;;;;;;5002989;28;20050;-63
2022/04/03 05:53:02;;;;;;;2.65;0.95;;;1.80;99.90;;;;;;5000318;28;20060;-65
2022/04/03 05:55:29;;;;;;;3.08;1.35;;;1.80;99.90;;;;;;5007769;28;20152;-65
2022/04/03 05:57:56;;;;;;;4.80;0.90;;;1.90;99.90;;;;;;5005475;28;20050;-64
2022/04/03 06:00:24;;;;;;;2.00;0.95;;;1.90;99.90;;;;;;5002081;28;20061;-63
2022/04/03 06:02:56;;;;;;;3.47;1.70;;;1.90;99.90;;;;;;5002337;28;20045;-62
2022/04/03 06:05:31;;;;;;;3.92;0.77;;;2.00;99.90;;;;;;5002860;28;20733;-64
2022/04/03 06:08:01;;;;;;;5.18;0.95;;;2.00;99.90;;;;;;5004844;28;20073;-63
2022/04/03 06:10:29;;;;;;;2.65;1.20;;;2.00;99.90;;;;;;5005571;28;20049;-62
2022/04/03 06:13:04;;;;;;;3.95;0.88;;;2.00;99.90;;;;;;5006076;28;20660;-63
2022/04/03 06:15:34;;;;;;;6.10;0.98;;;2.00;99.90;;;;;;4999785;28;20053;-72
2022/04/03 06:18:02;;;;;;;3.28;0.80;;;2.10;99.90;;;;;;5001893;28;20049;-63
2022/04/03 06:20:30;;;;;;;2.88;0.82;;;2.10;99.90;;;;;;5001066;28;20691;-63
2022/04/03 06:22:57;;;;;;;1.80;0.90;;;2.10;99.90;;;;;;5000385;28;20045;-63
2022/04/03 06:25:25;;;;;;;3.03;1.67;;;2.10;99.90;;;;;;5003656;28;20412;-67
2022/04/03 06:27:53;;;;;;;1.92;0.90;;;2.10;99.90;;;;;;5007150;28;20057;-77
2022/04/03 06:30:21;;;;;;;7.00;1.58;;;2.10;99.90;;;;;;5003121;28;20136;-67
2022/04/03 06:32:48;;;;;;;3.28;1.20;;;2.20;99.90;;;;;;5008087;28;20052;-63
2022/04/03 06:35:15;;;;;;;5.30;1.95;;;2.20;99.90;;;;;;5006562;28;20157;-72
2022/04/03 06:37:42;;;;;;;0.73;0.50;;;2.20;99.90;;;;;;5007244;28;20133;-64
2022/04/03 06:40:10;;;;;;;2.67;0.90;;;2.20;99.90;;;;;;5003557;28;20061;-63
2022/04/03 06:42:37;;;;;;;6.43;1.40;;;2.30;99.90;;;;;;5001731;28;20065;-66
2022/04/03 06:45:05;;;;;;;6.32;0.75;;;2.20;99.90;;;;;;5006500;28;20914;-64
2022/04/03 06:47:32;;;;;;;1.40;0.80;;;2.30;99.90;;;;;;5003249;28;20141;-69
2022/04/03 06:49:59;;;;;;;3.70;0.88;;;2.30;99.90;;;;;;5003469;28;20078;-63
2022/04/03 06:52:26;;;;;;;2.92;0.90;;;2.40;99.90;;;;;;4998336;28;20100;-63
2022/04/03 06:54:53;;;;;;;1.77;1.02;;;2.40;99.90;;;;;;5008242;28;20547;-62
2022/04/03 06:57:20;;;;;;;3.53;1.27;;;2.40;99.90;;;;;;5001279;28;20589;-63
2022/04/03 06:59:47;;;;;;;3.45;1.25;;;2.40;99.90;;;;;;5004606;28;20049;-62
2022/04/03 07:02:14;;;;;;;2.05;0.77;;;2.40;99.90;;;;;;5002695;28;20046;-63
2022/04/03 07:04:42;;;;;;;5.45;0.90;;;2.40;99.90;;;;;;5004830;28;20046;-62
2022/04/03 07:07:22;;;;;;;3.42;0.73;;;2.50;99.90;;;;;;4999059;28;20044;-74
2022/04/03 07:09:50;;;;;;;3.47;1.00;;;2.50;99.90;;;;;;5002514;28;20056;-62
2022/04/03 07:12:18;;;;;;;1.05;0.68;;;2.50;99.90;;;;;;4999189;28;20532;-75
2022/04/03 07:14:45;;;;;;;5.20;1.60;;;2.50;99.90;;;;;;5001190;28;20511;-63
2022/04/03 07:17:12;;;;;;;2.17;0.65;;;2.60;99.90;;;;;;5001511;28;20137;-63
2022/04/03 07:19:39;;;;;;;1.52;0.77;;;2.60;99.90;;;;;;5002778;28;20441;-63
2022/04/03 07:22:06;;;;;;;5.13;1.00;;;2.70;99.90;;;;;;5006131;28;20222;-64
2022/04/03 07:24:33;;;;;;;3.45;1.20;;;2.70;99.90;;;;;;5004975;28;20064;-62
2022/04/03 07:27:00;;;;;;;4.20;1.38;;;2.70;99.90;;;;;;5002707;28;20713;-64
2022/04/03 07:29:27;;;;;;;2.67;1.23;;;2.70;99.90;;;;;;4996270;28;20077;-65
2022/04/03 07:31:54;;;;;;;3.60;0.65;;;2.70;99.90;;;;;;5002825;28;20228;-62
2022/04/03 07:34:20;;;;;;;1.90;0.73;;;2.80;99.90;;;;;;5001082;28;20738;-72
2022/04/03 07:36:47;;;;;;;4.47;1.23;;;2.80;99.90;;;;;;5001915;28;20141;-62
2022/04/03 07:39:15;;;;;;;3.70;0.82;;;2.70;99.90;;;;;;5002431;28;20812;-64
2022/04/03 07:41:42;;;;;;;3.85;0.77;;;2.80;99.90;;;;;;5004614;28;20125;-64
2022/04/03 07:44:10;;;;;;;2.80;0.90;;;2.80;99.90;;;;;;5002611;28;20065;-63
2022/04/03 07:46:41;;;;;;;2.72;0.63;;;2.80;99.90;;;;;;4995799;28;20050;-64
2022/04/03 07:49:10;;;;;;;3.50;0.85;;;2.90;99.90;;;;;;5003419;28;20072;-67
2022/04/03 07:51:37;;;;;;;1.75;1.23;;;2.80;99.90;;;;;;5005839;28;20413;-67
2022/04/03 07:54:05;;;;;;;4.57;3.03;;;2.80;99.90;;;;;;5005605;28;20128;-65
2022/04/03 07:56:32;;;;;;;1.65;1.50;;;2.90;99.90;;;;;;5003940;28;20060;-63
2022/04/03 07:58:59;;;;;;;3.33;0.95;;;2.90;99.90;;;;;;4994352;28;20727;-62
2022/04/03 08:01:25;;;;;;;1.98;0.98;;;2.90;99.90;;;;;;5005580;28;20141;-70
2022/04/03 08:03:53;;;;;;;6.53;0.85;;;3.10;99.90;;;;;;5006493;28;20123;-79
2022/04/03 08:06:20;;;;;;;3.85;1.00;;;3.10;99.90;;;;;;5000818;28;20078;-63
2022/04/03 08:08:47;;;;;;;2.20;0.80;;;3.10;99.90;;;;;;5006426;28;20077;-62
2022/04/03 08:11:14;;;;;;;1.58;0.90;;;3.20;99.90;;;;;;5006976;28;20484;-70
2022/04/03 08:13:41;;;;;;;2.85;0.98;;;3.10;99.90;;;;;;5000312;28;20498;-63
2022/04/03 08:16:07;;;;;;;2.78;1.35;;;3.20;99.90;;;;;;5008858;28;20069;-65
2022/04/03 08:18:35;;;;;;;2.92;1.25;;;3.30;99.90;;;;;;5004644;28;20050;-64
2022/04/03 08:21:03;;;;;;;4.93;1.58;;;3.20;99.90;;;;;;5002110;28;20120;-65
2022/04/03 08:23:30;;;;;;;2.72;2.03;;;3.10;99.90;;;;;;5005890;28;20041;-71
2022/04/03 08:25:57;;;;;;;1.77;0.70;;;3.10;99.90;;;;;;5011833;28;20054;-68
2022/04/03 08:28:24;;;;;;;3.03;1.30;;;3.30;99.90;;;;;;5005995;28;20380;-62
2022/04/03 08:30:51;;;;;;;4.70;0.98;;;3.30;99.90;;;;;;5002759;28;20088;-62
2022/04/03 08:33:18;;;;;;;2.05;0.85;;;3.40;99.90;;;;;;5007805;28;20148;-65
2022/04/03 08:35:46;;;;;;;3.35;0.93;;;3.40;99.90;;;;;;5014172;28;20065;-63
2022/04/03 08:38:13;;;;;;;2.97;2.15;;;3.50;99.90;;;;;;5009143;28;20116;-63
2022/04/03 08:40:43;;;;;;;3.08;1.20;;;3.60;99.90;;;;;;5009090;28;20144;-71
2022/04/03 08:43:11;;;;;;;5.38;1.48;;;3.50;99.90;;;;;;5000947;28;20123;-62
2022/04/03 08:45:39;;;;;;;2.03;1.30;;;3.50;99.90;;;;;;5009703;28;20132;-66
2022/04/03 08:48:07;;;;;;;4.47;1.10;;;3.60;99.90;;;;;;5007004;28;20127;-63
2022/04/03 08:50:37;;;;;;;4.93;1.15;;;3.60;99.90;;;;;;4996841;28;20129;-63
2022/04/03 08:53:07;;;;;;;2.78;1.58;;;3.60;99.90;;;;;;5008135;28;20084;-62
2022/04/03 08:55:35;;;;;;;6.25;1.42;;;3.60;99.90;;;;;;5002929;28;20046;-63
2022/04/03 08:58:03;;;;;;;3.35;1.23;;;3.60;99.90;;;;;;5008779;28;20081;-64
2022/04/03 09:00:32;;;;;;;1.67;0.85;;;3.60;99.90;;;;;;5004910;28;20124;-65
2022/04/03 09:02:59;;;;;;;3.00;0.85;;;3.60;99.90;;;;;;5007269;28;20504;-69
2022/04/03 09:05:40;;;;;;;1.63;1.38;;;3.60;99.90;;;;;;4998212;28;20149;-62
2022/04/03 09:08:09;;;;;;;2.70;1.23;;;3.60;99.90;;;;;;4999820;28;20049;-65
2022/04/03 09:10:37;;;;;;;1.52;1.02;;;3.70;99.90;;;;;;5007366;28;20891;-76
2022/04/03 09:13:04;;;;;;;2.55;0.95;;;3.80;99.90;;;;;;5004234;28;20070;-69
2022/04/03 09:15:31;;;;;;;2.58;1.52;;;3.80;99.90;;;;;;5008999;28;20188;-63
2022/04/03 09:18:03;;;;;;;1.70;0.90;;;3.70;99.90;;;;;;5008117;28;20088;-65
2022/04/03 09:20:33;;;;;;;2.13;1.00;;;3.70;99.90;;;;;;5004170;28;21386;-66
2022/04/03 09:23:05;;;;;;;1.67;1.25;;;3.80;99.90;;;;;;5007486;28;20090;-62
2022/04/03 09:25:41;;;;;;;5.25;1.25;;;3.70;99.90;;;;;;5008917;28;21425;-66
2022/04/03 09:28:17;;;;;;;2.72;1.20;;;3.70;99.90;;;;;;5006314;28;20539;-65
2022/04/03 09:30:47;;;;;;;1.83;0.77;;;3.80;99.90;;;;;;5007194;28;20049;-68
2022/04/03 09:33:19;;;;;;;2.30;1.67;;;3.60;99.90;;;;;;5005442;28;20093;-72
2022/04/03 09:35:58;;;;;;;1.73;0.93;;;3.60;99.90;;;;;;4999828;28;20046;-62
2022/04/03 09:38:27;;;;;;;6.90;1.15;;;3.70;99.90;;;;;;5003448;28;20050;-68
2022/04/03 09:40:55;;;;;;;2.17;1.20;;;3.60;99.90;;;;;;5000967;28;20061;-64
2022/04/03 09:43:34;;;;;;;3.40;1.30;;;3.60;99.90;;;;;;5000606;28;20085;-62
2022/04/03 09:46:09;;;;;;;5.50;0.98;;;3.70;99.90;;;;;;5001902;28;20073;-66
2022/04/03 09:48:41;;;;;;;3.47;1.02;;;3.80;99.90;;;;;;5002272;28;20045;-67
2022/04/03 09:51:19;;;;;;;3.42;0.77;;;3.80;99.90;;;;;;5006281;28;20061;-65
2022/04/03 09:53:52;;;;;;;4.30;0.82;;;3.90;99.90;;;;;;5002585;28;20141;-63
2022/04/03 09:56:24;;;;;;;2.45;1.63;;;3.90;99.90;;;;;;5000413;28;20050;-62
2022/04/03 09:58:51;;;;;;;4.68;1.10;;;3.90;99.90;;;;;;4999180;28;20097;-66
2022/04/03 10:01:36;;;;;;;3.42;0.80;;;3.80;99.90;;;;;;4995845;28;20164;-69
2022/04/03 10:04:05;;;;;;;2.95;0.80;;;3.90;99.90;;;;;;5002067;28;20154;-62
2022/04/03 10:06:34;;;;;;;1.67;1.00;;;3.80;99.90;;;;;;4999850;28;22979;-63
2022/04/03 10:09:02;;;;;;;9.60;1.23;;;3.90;99.90;;;;;;5006691;28;20052;-62
2022/04/03 10:11:30;;;;;;;2.35;1.00;;;3.90;99.90;;;;;;5009632;28;20427;-62
2022/04/03 10:13:58;;;;;;;7.03;2.80;;;4.00;99.90;;;;;;5008467;28;20045;-67
2022/04/03 10:16:25;;;;;;;2.00;1.38;;;4.10;99.90;;;;;;5006449;28;20558;-61
2022/04/03 10:18:52;;;;;;;5.35;1.08;;;4.10;99.90;;;;;;5008446;28;20077;-62
2022/04/03 10:21:23;;;;;;;4.75;1.13;;;4.30;99.90;;;;;;5008213;28;20050;-63
2022/04/03 10:23:53;;;;;;;4.70;1.50;;;4.40;99.90;;;;;;5003043;28;20050;-66
2022/04/03 10:26:23;;;;;;;4.90;1.17;;;4.50;99.90;;;;;;4990548;28;20568;-63
2022/04/03 10:28:54;;;;;;;1.25;0.82;;;4.60;99.90;;;;;;4998671;28;20108;-70
2022/04/03 10:31:21;;;;;;;5.07;0.85;;;4.60;99.90;;;;;;4990726;28;20814;-63
2022/04/03 10:33:50;;;;;;;1.83;1.00;;;4.50;99.90;;;;;;4999988;28;20100;-64
2022/04/03 10:36:25;;;;;;;3.72;1.42;;;4.40;99.90;;;;;;4996715;28;20069;-69
2022/04/03 10:39:11;;;;;;;6.78;1.30;;;4.50;99.90;;;;;;4991693;28;20120;-64
2022/04/03 10:41:43;;;;;;;3.10;0.75;;;4.50;99.90;;;;;;4985701;28;20489;-71
2022/04/03 10:44:11;;;;;;;1.73;0.77;;;4.30;99.90;;;;;;4990871;28;20144;-70
2022/04/03 10:47:10;;;;;;;1.90;1.20;;;4.40;99.90;;;;;;4984252;28;20153;-64
2022/04/03 10:49:43;;;;;;;2.60;1.02;;;4.50;99.90;;;;;;4988080;28;20068;-69
2022/04/03 10:52:26;;;;;;;1.55;1.30;;;4.50;99.90;;;;;;4988109;28;20153;-67
2022/04/03 10:54:57;;;;;;;4.95;1.52;;;4.50;99.90;;;;;;4989223;28;20124;-63
2022/04/03 10:57:35;;;;;;;6.78;2.08;;;4.60;99.90;;;;;;4989578;28;20065;-63
2022/04/03 11:00:14;;;;;;;3.45;1.15;;;4.50;99.90;;;;;;4986265;28;20050;-65
2022/04/03 11:02:44;;;;;;;6.00;2.65;;;4.40;99.90;;;;;;4991999;28;20053;-72
2022/04/03 11:05:23;;;;;;;3.17;1.20;;;4.40;99.90;;;;;;4995348;28;20179;-64
2022/04/03 11:08:10;;;;;;;2.67;1.63;;;4.60;99.90;;;;;;5003377;28;20127;-66
2022/04/03 11:10:48;;;;;;;3.97;1.30;;;4.60;99.90;;;;;;4990069;28;20061;-63
2022/04/03 11:13:37;;;;;;;5.10;0.98;;;4.80;99.90;;;;;;4995645;28;20119;-67
2022/04/03 11:16:09;;;;;;;4.35;1.20;;;4.80;99.90;;;;;;4988653;28;20046;-65
2022/04/03 11:18:43;;;;;;;1.73;1.17;;;4.50;99.90;;;;;;4992661;28;20269;-66
2022/04/03 11:21:17;;;;;;;2.55;1.08;;;4.50;99.90;;;;;;4996012;28;20171;-66
2022/04/03 11:23:52;;;;;;;2.28;1.15;;;4.60;99.90;;;;;;4989778;28;20054;-65
2022/04/03 11:26:20;;;;;;;6.43;1.42;;;4.60;99.90;;;;;;4986909;28;20046;-65
2022/04/03 11:28:55;;;;;;;2.40;0.93;;;4.80;99.90;;;;;;4987488;28;20200;-65
2022/04/03 11:31:22;;;;;;;1.95;0.98;;;4.80;99.90;;;;;;4985395;28;20061;-71
2022/04/03 11:33:49;;;;;;;4.25;0.93;;;5.00;99.90;;;;;;4993082;28;20050;-65
2022/04/03 11:36:18;;;;;;;5.45;1.05;;;5.10;99.90;;;;;;5001651;28;20046;-70
2022/04/03 11:38:47;;;;;;;0.93;0.75;;;5.10;99.90;;;;;;5002441;28;20061;-64
2022/04/03 11:41:22;;;;;;;2.35;1.33;;;5.20;99.90;;;;;;5001493;28;20459;-64
2022/04/03 11:44:12;;;;;;;2.03;0.93;;;5.20;99.90;;;;;;4996951;28;20061;-61
2022/04/03 11:46:50;;;;;;;2.38;1.45;;;5.20;99.90;;;;;;4998441;28;20046;-62
2022/04/03 11:49:28;;;;;;;3.42;1.13;;;5.30;99.90;;;;;;4995094;28;20054;-64
2022/04/03 11:52:06;;;;;;;3.38;1.45;;;5.20;99.90;;;;;;5004241;28;20467;-66
2022/04/03 11:54:35;;;;;;;2.28;0.90;;;5.20;99.90;;;;;;4998550;28;20046;-61
2022/04/03 11:57:07;;;;;;;1.33;1.02;;;5.20;99.90;;;;;;5002798;28;20048;-62
2022/04/03 11:59:35;;;;;;;2.65;1.40;;;5.20;99.90;;;;;;5000448;28;20104;-60
2022/04/03 12:02:15;;;;;;;1.52;1.27;;;5.10;99.90;;;;;;5004044;28;20049;-62
2022/04/03 12:04:43;;;;;;;2.95;1.42;;;5.20;99.90;;;;;;5007879;28;20047;-61
2022/04/03 12:07:14;;;;;;;2.67;1.98;;;5.20;99.90;;;;;;5007660;28;20049;-64
2022/04/03 12:09:42;;;;;;;2.28;0.93;;;5.30;99.90;;;;;;5016060;28;20045;-70
2022/04/03 12:12:10;;;;;;;6.03;1.35;;;5.40;99.90;;;;;;5017370;28;20095;-61
2022/04/03 12:14:44;;;;;;;3.72;1.42;;;5.50;99.90;;;;;;4992901;28;20112;-62
2022/04/03 12:17:13;;;;;;;2.45;2.13;;;5.60;99.90;;;;;;5007079;28;20108;-66
2022/04/03 12:19:47;;;;;;;4.57;1.98;;;5.50;99.90;;;;;;5008284;28;20402;-61
2022/04/03 12:22:19;;;;;;;1.17;1.08;;;5.60;99.90;;;;;;5005999;28;20081;-59
2022/04/03 12:24:47;;;;;;;3.47;1.48;;;5.70;99.90;;;;;;5006701;28;20100;-62
2022/04/03 12:27:14;;;;;;;3.60;1.40;;;5.60;99.90;;;;;;4995020;28;20053;-64
2022/04/03 12:29:46;;;;;;;4.82;1.75;;;5.60;99.90;;;;;;4995491;28;20471;-65
2022/04/03 12:32:32;;;;;;;6.20;1.80;;;5.80;99.90;;;;;;5011434;28;20061;-62
2022/04/03 12:34:59;;;;;;;3.30;0.98;;;5.80;99.90;;;;;;5007239;28;20241;-64
2022/04/03 12:37:26;;;;;;;2.78;1.02;;;5.80;99.90;;;;;;5006857;28;20496;-61
2022/04/03 12:39:52;;;;;;;1.80;1.08;;;5.70;99.90;;;;;;5005349;28;20411;-61
2022/04/03 12:42:26;;;;;;;12.80;2.03;;;5.70;99.90;;;;;;5002946;28;20145;-65
2022/04/03 12:45:08;;;;;;;3.72;2.13;;;5.60;99.90;;;;;;4989612;28;20108;-62
2022/04/03 12:47:42;;;;;;;7.43;1.27;;;5.70;99.90;;;;;;5001442;28;20053;-66
2022/04/03 12:50:17;;;;;;;5.07;1.00;;;5.90;99.90;;;;;;5008781;28;20484;-64
2022/04/03 12:52:47;;;;;;;1.85;1.30;;;5.90;99.90;;;;;;5011669;28;20129;-65
2022/04/03 12:55:23;;;;;;;2.67;1.10;;;6.00;99.90;;;;;;5007242;28;20073;-62
2022/04/03 13:00:51;;;;;;;2.92;0.65;;;6.20;99.90;;;;;;4997200;28;20408;-65
2022/04/03 13:03:29;;;;;;;4.82;0.93;;;6.40;99.90;;;;;;4998889;28;20474;-67
2022/04/03 13:06:00;;;;;;;5.55;1.45;;;6.40;99.90;;;;;;5008800;28;20659;-61
2022/04/03 13:08:38;;;;;;;1.10;0.65;;;6.60;99.90;;;;;;4999347;28;20394;-64